createdAt,value
2019-05-19T00:02:40.824Z,70.80
2019-05-19T00:06:45.729Z,70.80
2019-05-19T00:10:50.561Z,70.80
2019-05-19T00:14:57.059Z,71.40
2019-05-19T00:19:01.997Z,71.60
2019-05-19T00:23:06.931Z,72.00
2019-05-19T00:27:11.763Z,73.00
2019-05-19T00:31:16.671Z,72.40
2019-05-19T00:35:22.656Z,73.30
2019-05-19T00:39:29.303Z,73.10
2019-05-19T00:43:34.621Z,72.80
2019-05-19T00:47:39.597Z,73.30
2019-05-19T00:51:44.908Z,73.10
2019-05-19T00:55:51.197Z,73.20
2019-05-19T00:59:56.692Z,73.00
2019-05-19T01:04:01.443Z,72.70
2019-05-19T01:08:07.611Z,72.80
2019-05-19T01:12:12.511Z,73.70
2019-05-19T01:16:17.396Z,73.40
2019-05-19T01:20:22.285Z,73.90
2019-05-19T01:24:27.181Z,73.30
2019-05-19T01:28:32.092Z,74.20
2019-05-19T01:32:37.279Z,74.20
2019-05-19T01:36:42.443Z,73.70
2019-05-19T01:40:47.581Z,73.00
2019-05-19T01:44:52.834Z,73.90
2019-05-19T01:48:57.652Z,74.20
2019-05-19T01:53:02.552Z,75.40
2019-05-19T01:57:07.454Z,75.20
2019-05-19T02:01:12.316Z,75.60
2019-05-19T02:05:17.519Z,77.00
2019-05-19T02:09:22.416Z,77.40
2019-05-19T02:13:27.314Z,77.30
2019-05-19T02:17:32.140Z,77.80
2019-05-19T02:21:37.008Z,76.60
2019-05-19T02:25:41.924Z,75.90
2019-05-19T02:29:46.824Z,75.30
2019-05-19T02:33:51.661Z,76.00
2019-05-19T02:37:56.569Z,75.80
2019-05-19T02:42:04.102Z,76.00
2019-05-19T02:46:11.127Z,76.70
2019-05-19T02:50:16.518Z,79.30
2019-05-19T02:54:22.026Z,81.40
2019-05-19T02:58:27.508Z,82.00
2019-05-19T03:02:32.231Z,82.60
2019-05-19T03:06:37.056Z,82.00
2019-05-19T03:10:41.951Z,80.90
2019-05-19T03:14:46.868Z,83.00
2019-05-19T03:18:52.860Z,84.10
2019-05-19T03:22:58.588Z,84.60
2019-05-19T03:27:03.397Z,84.40
2019-05-19T03:31:16.091Z,85.00
2019-05-19T03:35:20.847Z,85.90
2019-05-19T03:39:25.973Z,86.60
2019-05-19T03:43:30.739Z,87.70
2019-05-19T03:47:35.477Z,88.00
2019-05-19T03:51:40.321Z,88.80
2019-05-19T03:55:45.212Z,88.50
2019-05-19T03:59:50.114Z,88.90
2019-05-19T04:03:54.928Z,89.40
2019-05-19T04:07:59.781Z,89.40
2019-05-19T04:12:04.704Z,89.00
2019-05-19T04:16:09.536Z,88.30
2019-05-19T04:20:14.712Z,89.20
2019-05-19T04:24:19.563Z,88.80
2019-05-19T04:28:24.443Z,88.00
2019-05-19T04:32:29.260Z,88.30
2019-05-19T04:36:34.106Z,86.90
2019-05-19T04:40:38.925Z,86.80
2019-05-19T04:44:43.846Z,85.90
2019-05-19T04:48:48.657Z,86.80
2019-05-19T04:52:53.467Z,86.80
2019-05-19T04:56:58.413Z,88.10
2019-05-19T05:01:04.385Z,87.40
2019-05-19T05:05:09.288Z,86.90
2019-05-19T05:09:14.121Z,87.20
2019-05-19T05:13:18.998Z,87.20
2019-05-19T05:17:23.748Z,88.20
2019-05-19T05:21:28.641Z,87.70
2019-05-19T05:25:33.540Z,87.60
2019-05-19T05:29:38.443Z,87.50
2019-05-19T05:33:43.320Z,87.00
2019-05-19T05:37:48.208Z,86.40
2019-05-19T05:41:53.917Z,87.70
2019-05-19T05:45:58.795Z,87.80
2019-05-19T05:50:04.039Z,87.10
2019-05-19T05:54:08.940Z,87.20
2019-05-19T05:58:13.848Z,88.60
2019-05-19T06:02:18.706Z,88.20
2019-05-19T06:06:23.663Z,86.80
2019-05-19T06:10:28.605Z,86.20
2019-05-19T06:14:33.495Z,87.00
2019-05-19T06:18:38.388Z,86.90
2019-05-19T06:22:55.758Z,86.40
2019-05-19T06:26:49.829Z,86.70
2019-05-19T06:30:54.724Z,85.70
2019-05-19T06:34:59.628Z,85.80
2019-05-19T06:39:06.662Z,84.90
2019-05-19T06:43:11.692Z,84.70
2019-05-19T06:47:16.625Z,85.20
2019-05-19T06:51:21.426Z,85.80
2019-05-19T06:55:26.286Z,85.60
2019-05-19T06:59:31.236Z,85.20
2019-05-19T07:03:36.159Z,85.30
2019-05-19T07:07:41.206Z,84.50
2019-05-19T07:11:46.032Z,84.00
2019-05-19T07:15:50.941Z,84.60
2019-05-19T07:19:55.749Z,83.40
2019-05-19T07:24:00.926Z,83.80
2019-05-19T07:28:06.142Z,82.70
2019-05-19T07:32:11.076Z,82.70
2019-05-19T07:36:15.985Z,81.70
2019-05-19T07:40:20.865Z,81.90
2019-05-19T07:44:25.776Z,83.00
2019-05-19T07:48:30.688Z,81.90
2019-05-19T07:52:35.606Z,82.00
2019-05-19T07:56:40.445Z,80.80
2019-05-19T08:00:45.269Z,80.20
2019-05-19T08:04:50.185Z,80.10
2019-05-19T08:08:55.095Z,79.70
2019-05-19T08:12:59.989Z,78.40
2019-05-19T08:17:04.973Z,78.70
2019-05-19T08:21:09.989Z,78.40
2019-05-19T08:25:14.990Z,75.70
2019-05-19T08:29:19.990Z,76.60
2019-05-19T08:33:24.825Z,76.00
2019-05-19T08:37:29.797Z,75.20
2019-05-19T08:41:34.864Z,74.20
2019-05-19T08:45:39.736Z,74.50
2019-05-19T08:49:44.649Z,73.40
2019-05-19T08:53:49.557Z,73.00
2019-05-19T08:57:54.473Z,74.00
2019-05-19T09:01:59.292Z,73.20
2019-05-19T09:06:04.110Z,71.50
2019-05-19T09:10:10.128Z,70.60
2019-05-19T09:14:15.364Z,69.80
2019-05-19T09:18:20.209Z,71.10
2019-05-19T09:22:25.133Z,70.00
2019-05-19T09:26:30.020Z,71.20
2019-05-19T09:30:34.993Z,70.50
2019-05-19T09:34:40.176Z,70.20
2019-05-19T09:38:45.063Z,69.20
2019-05-19T09:42:49.890Z,69.00
2019-05-19T09:46:54.776Z,69.50
2019-05-19T09:50:59.819Z,67.20
2019-05-19T09:55:05.291Z,65.60
2019-05-19T09:59:10.155Z,66.10
2019-05-19T10:03:15.049Z,66.00
2019-05-19T10:07:19.946Z,64.70
2019-05-19T10:11:41.463Z,65.30
2019-05-19T10:15:46.376Z,66.10
2019-05-19T10:19:51.397Z,65.40
2019-05-19T10:23:56.395Z,62.10
2019-05-19T10:28:01.534Z,60.70
2019-05-19T10:32:06.410Z,59.90
2019-05-19T10:36:11.353Z,60.60
2019-05-19T10:40:16.877Z,60.00
2019-05-19T10:44:21.696Z,59.80
2019-05-19T10:48:26.735Z,60.10
2019-05-19T10:52:31.610Z,60.20
2019-05-19T10:56:36.779Z,59.80
2019-05-19T11:00:41.684Z,59.20
2019-05-19T11:04:46.933Z,57.80
2019-05-19T11:08:53.082Z,57.10
2019-05-19T11:12:57.904Z,57.60
2019-05-19T11:17:02.728Z,57.90
2019-05-19T11:21:07.681Z,59.10
2019-05-19T11:25:12.930Z,58.30
2019-05-19T11:29:17.960Z,56.80
2019-05-19T11:33:22.849Z,57.00
2019-05-19T11:37:27.688Z,55.60
2019-05-19T11:41:32.542Z,55.00
2019-05-19T11:45:37.464Z,54.10
2019-05-19T11:49:42.208Z,53.60
2019-05-19T11:53:47.115Z,51.30
2019-05-19T11:57:52.008Z,52.10
2019-05-19T12:01:56.896Z,52.10
2019-05-19T12:06:01.720Z,48.50
2019-05-19T12:10:07.008Z,47.40
2019-05-19T12:14:12.197Z,48.10
2019-05-19T12:18:17.050Z,48.50
2019-05-19T12:22:21.967Z,46.20
2019-05-19T12:26:26.895Z,42.70
2019-05-19T12:30:32.996Z,41.80
2019-05-19T12:34:37.901Z,42.10
2019-05-19T12:38:42.771Z,39.90
2019-05-19T12:42:47.748Z,39.30
2019-05-19T12:46:52.976Z,37.80
2019-05-19T12:50:57.809Z,36.90
2019-05-19T12:55:02.799Z,36.30
2019-05-19T12:59:07.717Z,35.20
2019-05-19T13:03:12.567Z,35.80
2019-05-19T13:07:17.468Z,38.20
2019-05-19T13:11:22.940Z,36.70
2019-05-19T13:15:27.844Z,34.60
2019-05-19T13:19:32.662Z,36.90
2019-05-19T13:23:37.487Z,35.40
2019-05-19T13:27:42.316Z,35.40
2019-05-19T13:31:47.141Z,34.00
2019-05-19T13:35:52.388Z,32.10
2019-05-19T13:39:57.325Z,30.70
2019-05-19T13:44:02.252Z,31.00
2019-05-19T13:48:07.164Z,30.20
2019-05-19T13:52:12.000Z,29.40
2019-05-19T13:56:16.917Z,29.00
2019-05-19T14:00:21.984Z,28.60
2019-05-19T14:04:26.820Z,25.70
2019-05-19T14:08:31.721Z,26.90
2019-05-19T14:12:59.566Z,27.60
2019-05-19T14:17:04.939Z,26.50
2019-05-19T14:21:10.108Z,28.60
2019-05-19T14:25:15.004Z,28.80
2019-05-19T14:29:19.914Z,27.80
2019-05-19T14:33:24.816Z,27.40
2019-05-19T14:37:29.722Z,27.40
2019-05-19T14:41:39.027Z,28.80
2019-05-19T14:45:43.932Z,27.80
2019-05-19T14:49:48.838Z,27.40
2019-05-19T14:53:53.747Z,28.10
2019-05-19T14:57:58.752Z,29.00
2019-05-19T15:02:03.660Z,30.00
2019-05-19T15:06:08.545Z,29.50
2019-05-19T15:10:13.442Z,30.00
2019-05-19T15:14:18.348Z,31.80
2019-05-19T15:18:23.190Z,32.50
2019-05-19T15:22:28.084Z,33.50
2019-05-19T15:26:33.202Z,33.30
2019-05-19T15:30:38.097Z,33.00
2019-05-19T15:34:42.873Z,33.00
2019-05-19T15:38:47.780Z,32.60
2019-05-19T15:42:52.532Z,33.50
2019-05-19T15:46:59.562Z,32.80
2019-05-19T15:51:04.497Z,34.40
2019-05-19T15:55:09.500Z,35.90
2019-05-19T15:59:14.342Z,33.20
2019-05-19T16:03:19.176Z,31.90
2019-05-19T16:07:24.029Z,34.90
2019-05-19T16:11:28.838Z,36.50
2019-05-19T16:15:34.934Z,37.70
2019-05-19T16:19:39.775Z,38.10
2019-05-19T16:23:44.694Z,39.00
2019-05-19T16:27:49.446Z,35.20
2019-05-19T16:31:54.249Z,37.40
2019-05-19T16:35:59.110Z,37.70
2019-05-19T16:40:04.318Z,39.50
2019-05-19T16:44:09.695Z,38.10
2019-05-19T16:48:15.791Z,37.90
2019-05-19T16:52:20.795Z,40.50
2019-05-19T16:56:25.821Z,40.10
2019-05-19T17:00:30.743Z,39.30
2019-05-19T17:04:35.651Z,38.80
2019-05-19T17:08:40.571Z,37.70
2019-05-19T17:12:45.467Z,38.00
2019-05-19T17:16:50.382Z,38.20
2019-05-19T17:20:55.392Z,38.90
2019-05-19T17:25:00.507Z,39.70
2019-05-19T17:29:05.560Z,40.00
2019-05-19T17:33:10.361Z,41.10
2019-05-19T17:37:15.196Z,43.00
2019-05-19T17:41:20.110Z,47.90
2019-05-19T17:45:26.066Z,51.10
2019-05-19T17:49:30.983Z,54.80
2019-05-19T17:53:35.860Z,56.50
2019-05-19T17:57:41.474Z,57.90
2019-05-19T18:01:46.372Z,59.80
2019-05-19T18:05:53.330Z,62.90
2019-05-19T18:09:58.293Z,63.40
2019-05-19T18:14:03.373Z,63.60
2019-05-19T18:18:08.260Z,63.90
2019-05-19T18:22:13.151Z,64.60
2019-05-19T18:26:18.065Z,64.30
2019-05-19T18:30:22.967Z,63.50
2019-05-19T18:34:29.036Z,61.90
2019-05-19T18:38:33.844Z,60.90
2019-05-19T18:42:38.785Z,61.60
2019-05-19T18:46:43.647Z,61.50
2019-05-19T18:50:48.472Z,58.70
2019-05-19T18:54:53.368Z,58.60
2019-05-19T18:58:58.272Z,59.10
2019-05-19T19:03:03.795Z,59.40
2019-05-19T19:07:08.757Z,59.50
2019-05-19T19:11:13.783Z,60.00
2019-05-19T19:15:19.800Z,60.00
2019-05-19T19:19:24.703Z,62.90
2019-05-19T19:23:29.521Z,63.90
2019-05-19T19:27:34.408Z,66.50
2019-05-19T19:31:48.051Z,69.60
2019-05-19T19:35:47.822Z,74.80
2019-05-19T19:39:52.745Z,78.80
2019-05-19T19:43:57.633Z,84.30
2019-05-19T19:48:02.561Z,87.00
2019-05-19T19:52:07.537Z,89.60
2019-05-19T19:56:12.458Z,90.50
2019-05-19T20:00:42.194Z,90.00
2019-05-19T20:04:47.152Z,90.20
2019-05-19T20:08:51.922Z,88.50
2019-05-19T20:12:56.857Z,88.00
2019-05-19T20:17:01.699Z,88.60
2019-05-19T20:21:07.704Z,87.30
2019-05-19T20:25:12.520Z,83.50
2019-05-19T20:29:17.409Z,87.10
2019-05-19T20:33:22.304Z,91.30
2019-05-19T20:37:27.109Z,92.70
2019-05-19T20:41:31.870Z,92.10
2019-05-19T20:45:36.811Z,92.10
2019-05-19T20:49:41.673Z,91.30
2019-05-19T20:53:46.433Z,91.20
2019-05-19T20:57:51.172Z,90.10
2019-05-19T21:01:56.063Z,90.30
2019-05-19T21:06:01.006Z,87.70
2019-05-19T21:10:06.719Z,87.00
2019-05-19T21:14:11.558Z,86.80
2019-05-19T21:18:16.457Z,87.20
2019-05-19T21:22:21.384Z,88.00
2019-05-19T21:26:26.341Z,84.70
2019-05-19T21:30:31.283Z,83.70
2019-05-19T21:34:36.447Z,84.60
2019-05-19T21:38:41.200Z,86.20
2019-05-19T21:42:47.119Z,90.20
2019-05-19T21:46:52.121Z,91.00
2019-05-19T21:50:56.920Z,91.70
2019-05-19T21:55:02.062Z,92.70
2019-05-19T21:59:06.901Z,92.90
2019-05-19T22:03:11.775Z,93.60
2019-05-19T22:07:27.432Z,94.20
2019-05-19T22:11:32.231Z,93.80
2019-05-19T22:15:37.440Z,93.10
2019-05-19T22:19:42.664Z,93.90
2019-05-19T22:23:47.551Z,94.70
2019-05-19T22:27:52.644Z,94.90
2019-05-19T22:31:57.464Z,94.10
2019-05-19T22:36:02.367Z,94.00
2019-05-19T22:40:07.268Z,94.30
2019-05-19T22:44:12.454Z,93.90
2019-05-19T22:48:17.410Z,93.10
2019-05-19T22:52:22.608Z,92.80
2019-05-19T22:56:28.556Z,92.50
2019-05-19T23:00:33.453Z,92.60
2019-05-19T23:04:38.355Z,92.20
2019-05-19T23:08:43.094Z,92.80
2019-05-19T23:12:48.356Z,92.80
2019-05-19T23:16:53.584Z,93.00
2019-05-19T23:20:58.547Z,92.70
2019-05-19T23:25:03.708Z,92.50
2019-05-19T23:29:08.445Z,92.50
2019-05-19T23:33:13.390Z,93.00
2019-05-19T23:37:18.146Z,93.60
2019-05-19T23:41:23.032Z,93.70
2019-05-19T23:45:27.960Z,93.90
2019-05-19T23:49:32.686Z,94.00
2019-05-19T23:53:37.512Z,94.30
2019-05-19T23:57:42.435Z,94.40
